createdAt,value
2022-10-04T00:00:27.379Z,6.50
2022-10-04T00:03:06.831Z,6.90
2022-10-04T00:05:42.512Z,7.55
2022-10-04T00:08:27.764Z,7.05
2022-10-04T00:11:08.861Z,8.85
2022-10-04T00:13:50.353Z,9.02
2022-10-04T00:16:29.586Z,6.13
2022-10-04T00:19:20.978Z,7.03
2022-10-04T00:22:20.002Z,7.03
2022-10-04T00:25:18.818Z,6.28
2022-10-04T00:28:32.471Z,10.93
2022-10-04T00:31:15.624Z,8.65
2022-10-04T00:33:50.471Z,8.13
2022-10-04T00:36:56.762Z,11.65
2022-10-04T00:39:43.752Z,6.80
2022-10-04T00:42:37.588Z,6.07
2022-10-04T00:45:17.925Z,6.32
2022-10-04T00:48:11.671Z,6.97
2022-10-04T00:50:51.312Z,7.05
2022-10-04T00:53:42.357Z,5.05
2022-10-04T00:56:20.875Z,5.95
2022-10-04T00:59:15.074Z,9.57
2022-10-04T01:01:52.193Z,5.47
2022-10-04T01:04:38.066Z,4.57
2022-10-04T01:07:14.928Z,5.95
2022-10-04T01:09:54.391Z,6.80
2022-10-04T01:12:42.289Z,5.28
2022-10-04T01:15:20.162Z,6.53
2022-10-04T01:18:12.202Z,7.10
2022-10-04T01:20:56.154Z,7.15
2022-10-04T01:23:39.062Z,5.80
2022-10-04T01:26:41.129Z,9.32
2022-10-04T01:29:17.171Z,8.25
2022-10-04T01:31:52.439Z,8.52
2022-10-04T01:34:28.233Z,8.30
2022-10-04T01:37:01.948Z,7.18
2022-10-04T01:39:36.042Z,6.40
2022-10-04T01:42:12.058Z,7.50
2022-10-04T01:44:51.457Z,6.38
2022-10-04T01:47:32.582Z,8.48
2022-10-04T01:50:15.649Z,9.73
2022-10-04T01:52:52.965Z,8.95
2022-10-04T01:55:32.571Z,7.03
2022-10-04T01:58:12.772Z,6.97
2022-10-04T02:00:52.422Z,7.57
2022-10-04T02:03:33.063Z,7.22
2022-10-04T02:06:08.977Z,8.68
2022-10-04T02:08:49.440Z,10.57
2022-10-04T02:11:24.488Z,8.40
2022-10-04T02:13:58.133Z,9.70
2022-10-04T02:16:33.002Z,8.20
2022-10-04T02:19:06.357Z,7.40
2022-10-04T02:21:39.567Z,10.88
2022-10-04T02:24:13.297Z,9.90
2022-10-04T02:26:51.613Z,8.93
2022-10-04T02:29:24.781Z,9.82
2022-10-04T02:32:15.555Z,9.45
2022-10-04T02:34:48.926Z,13.25
2022-10-04T02:37:24.204Z,15.35
2022-10-04T02:40:05.827Z,11.18
2022-10-04T02:42:47.652Z,11.70
2022-10-04T02:45:26.087Z,15.98
2022-10-04T02:48:04.235Z,16.10
2022-10-04T02:50:46.367Z,12.10
2022-10-04T02:53:24.849Z,17.10
2022-10-04T02:55:58.741Z,13.98
2022-10-04T02:58:33.926Z,13.13
2022-10-04T03:01:07.657Z,12.75
2022-10-04T03:03:45.287Z,10.23
2022-10-04T03:06:20.914Z,11.75
2022-10-04T03:09:15.114Z,10.18
2022-10-04T03:11:50.556Z,14.13
2022-10-04T03:14:27.689Z,14.65
2022-10-04T03:17:04.249Z,11.82
2022-10-04T03:19:38.579Z,12.50
2022-10-04T03:22:12.728Z,10.68
2022-10-04T03:24:48.256Z,11.75
2022-10-04T03:27:24.963Z,10.32
2022-10-04T03:30:00.143Z,16.50
2022-10-04T03:32:34.289Z,12.98
2022-10-04T03:35:14.095Z,13.23
2022-10-04T03:37:47.748Z,12.43
2022-10-04T03:40:26.000Z,13.07
2022-10-04T03:43:01.618Z,13.43
2022-10-04T03:45:36.063Z,12.93
2022-10-04T03:48:14.104Z,14.55
2022-10-04T03:50:48.962Z,12.40
2022-10-04T03:53:30.196Z,13.63
2022-10-04T03:56:09.995Z,15.02
2022-10-04T03:58:43.689Z,11.68
2022-10-04T04:01:28.700Z,15.35
2022-10-04T04:04:06.111Z,17.13
2022-10-04T04:06:44.070Z,13.32
2022-10-04T04:09:23.273Z,15.02
2022-10-04T04:11:58.626Z,14.38
2022-10-04T04:14:31.619Z,14.50
2022-10-04T04:19:54.447Z,17.08
2022-10-04T04:22:31.310Z,13.68
2022-10-04T04:25:08.297Z,13.43
2022-10-04T04:27:44.782Z,10.45
2022-10-04T04:30:19.283Z,14.18
2022-10-04T04:32:57.564Z,12.10
2022-10-04T04:35:33.405Z,14.13
2022-10-04T04:38:15.219Z,10.25
2022-10-04T04:40:57.571Z,12.63
2022-10-04T04:43:30.955Z,11.70
2022-10-04T04:46:26.029Z,16.92
2022-10-04T04:51:35.145Z,16.55
2022-10-04T04:54:08.744Z,11.75
2022-10-04T04:56:44.015Z,13.82
2022-10-04T04:59:17.928Z,11.20
2022-10-04T05:01:51.565Z,13.73
2022-10-04T05:04:26.239Z,13.07
2022-10-04T05:07:10.539Z,17.27
2022-10-04T05:09:43.508Z,11.70
2022-10-04T05:12:21.266Z,13.23
2022-10-04T05:14:55.454Z,10.68
2022-10-04T05:17:35.186Z,13.57
2022-10-04T05:20:16.559Z,15.00
2022-10-04T05:22:51.428Z,13.77
2022-10-04T05:25:29.312Z,13.95
2022-10-04T05:28:03.042Z,16.77
2022-10-04T05:31:02.456Z,19.55
2022-10-04T05:33:40.579Z,13.20
2022-10-04T05:36:46.144Z,12.40
2022-10-04T05:39:27.846Z,15.60
2022-10-04T05:42:07.848Z,14.23
2022-10-04T05:44:47.776Z,15.93
2022-10-04T05:47:26.553Z,15.00
2022-10-04T05:50:01.156Z,15.10
2022-10-04T05:52:38.436Z,16.60
2022-10-04T05:55:23.237Z,15.77
2022-10-04T05:58:19.281Z,14.27
2022-10-04T06:01:13.083Z,13.63
2022-10-04T06:04:02.836Z,18.10
2022-10-04T06:06:41.329Z,18.40
2022-10-04T06:09:32.263Z,15.10
2022-10-04T06:12:13.334Z,16.40
2022-10-04T06:15:03.585Z,16.27
2022-10-04T06:18:15.177Z,14.68
2022-10-04T06:21:00.197Z,14.98
2022-10-04T06:23:37.595Z,18.35
2022-10-04T06:26:14.996Z,17.05
2022-10-04T06:28:52.201Z,15.65
2022-10-04T06:31:55.385Z,16.75
2022-10-04T06:34:53.688Z,18.00
2022-10-04T06:37:44.020Z,18.65
2022-10-04T06:40:37.021Z,20.15
2022-10-04T06:43:31.510Z,18.98
2022-10-04T06:46:19.880Z,15.98
2022-10-04T06:49:17.277Z,18.70
2022-10-04T06:52:07.249Z,16.92
2022-10-04T06:54:55.306Z,17.83
2022-10-04T06:57:46.523Z,15.70
2022-10-04T07:00:25.499Z,16.58
2022-10-04T07:03:03.659Z,17.73
2022-10-04T07:05:43.566Z,19.67
2022-10-04T07:08:31.499Z,15.15
2022-10-04T07:11:13.603Z,19.02
2022-10-04T07:13:56.773Z,20.33
2022-10-04T07:16:41.153Z,14.75
2022-10-04T07:19:43.527Z,19.40
2022-10-04T07:22:22.654Z,16.80
2022-10-04T07:25:08.267Z,17.98
2022-10-04T07:27:49.189Z,17.70
2022-10-04T07:30:21.293Z,15.13
2022-10-04T07:32:58.256Z,15.37
2022-10-04T07:35:36.209Z,20.30
2022-10-04T07:38:17.030Z,18.55
2022-10-04T07:41:04.779Z,17.33
2022-10-04T07:43:48.087Z,17.83
2022-10-04T07:46:28.887Z,16.80
2022-10-04T07:49:03.156Z,18.38
2022-10-04T07:51:44.887Z,18.02
2022-10-04T07:54:22.149Z,16.58
2022-10-04T07:56:58.397Z,15.02
2022-10-04T07:59:42.078Z,14.75
2022-10-04T08:02:28.882Z,16.55
2022-10-04T08:05:20.897Z,15.85
2022-10-04T08:08:16.583Z,16.00
2022-10-04T08:10:57.709Z,14.93
2022-10-04T08:13:39.173Z,20.00
2022-10-04T08:16:20.302Z,16.92
2022-10-04T08:19:07.185Z,18.88
2022-10-04T08:21:53.619Z,20.98
2022-10-04T08:24:34.705Z,20.15
2022-10-04T08:27:34.688Z,24.88
2022-10-04T08:30:13.099Z,21.63
2022-10-04T08:33:10.850Z,22.95
2022-10-04T08:35:56.881Z,20.55
2022-10-04T08:38:43.264Z,23.05
2022-10-04T08:41:44.903Z,21.85
2022-10-04T08:44:50.395Z,19.27
2022-10-04T08:47:55.007Z,25.83
2022-10-04T08:51:05.694Z,25.20
2022-10-04T08:54:20.873Z,24.40
2022-10-04T08:57:16.532Z,20.20
2022-10-04T09:00:05.802Z,22.27
2022-10-04T09:03:15.980Z,22.50
2022-10-04T09:05:57.846Z,24.63
2022-10-04T09:09:04.670Z,23.38
2022-10-04T09:12:03.669Z,23.17
2022-10-04T09:15:02.001Z,24.50
2022-10-04T09:17:46.835Z,21.38
2022-10-04T09:20:38.384Z,21.63
2022-10-04T09:23:25.272Z,23.95
2022-10-04T09:26:16.431Z,24.98
2022-10-04T09:29:32.046Z,24.15
2022-10-04T09:32:20.938Z,20.55
2022-10-04T09:35:14.975Z,24.92
2022-10-04T09:38:11.079Z,20.35
2022-10-04T09:41:03.860Z,19.88
2022-10-04T09:44:08.550Z,20.63
2022-10-04T09:46:56.696Z,26.98
2022-10-04T09:49:47.992Z,26.13
2022-10-04T09:52:42.252Z,21.85
2022-10-04T09:55:29.736Z,27.40
2022-10-04T09:58:28.843Z,18.58
2022-10-04T10:01:12.331Z,25.38
2022-10-04T10:04:06.845Z,22.73
2022-10-04T10:07:00.737Z,20.05
2022-10-04T10:09:59.374Z,20.25
2022-10-04T10:13:11.936Z,19.15
2022-10-04T10:15:59.510Z,17.80
2022-10-04T10:18:45.213Z,24.98
2022-10-04T10:21:43.056Z,18.15
2022-10-04T10:24:58.226Z,21.38
2022-10-04T10:27:48.983Z,18.77
2022-10-04T10:30:26.160Z,15.70
2022-10-04T10:33:20.429Z,19.17
2022-10-04T10:36:07.962Z,18.00
2022-10-04T10:39:00.646Z,18.40
2022-10-04T10:41:49.026Z,17.05
2022-10-04T10:44:34.617Z,17.70
2022-10-04T10:47:35.531Z,16.38
2022-10-04T10:50:25.774Z,15.70
2022-10-04T10:53:23.104Z,19.13
2022-10-04T10:56:47.950Z,22.00
2022-10-04T11:00:05.788Z,17.20
2022-10-04T11:03:14.326Z,17.35
2022-10-04T11:06:20.359Z,15.50
2022-10-04T11:09:23.413Z,15.13
2022-10-04T11:12:18.124Z,15.82
2022-10-04T11:15:22.124Z,14.98
2022-10-04T11:18:50.419Z,17.00
2022-10-04T11:21:56.008Z,15.63
2022-10-04T11:25:11.594Z,15.00
2022-10-04T11:27:57.415Z,15.95
2022-10-04T11:30:46.659Z,15.57
2022-10-04T11:33:55.841Z,13.10
2022-10-04T11:36:45.098Z,14.52
2022-10-04T11:39:47.060Z,12.77
2022-10-04T11:42:31.963Z,13.88
2022-10-04T11:45:34.026Z,14.80
2022-10-04T11:48:22.075Z,15.70
2022-10-04T11:51:21.569Z,13.60
2022-10-04T11:54:18.611Z,11.18
2022-10-04T11:57:20.577Z,13.30
2022-10-04T12:00:02.865Z,14.27
2022-10-04T12:03:02.692Z,13.18
2022-10-04T12:05:58.744Z,13.75
2022-10-04T12:08:43.991Z,9.93
2022-10-04T12:12:13.198Z,14.20
2022-10-04T12:15:04.428Z,14.32
2022-10-04T12:18:17.891Z,9.73
2022-10-04T12:21:11.828Z,10.65
2022-10-04T12:24:11.752Z,8.55
2022-10-04T12:27:02.840Z,9.82
2022-10-04T12:30:24.267Z,10.10
2022-10-04T12:33:11.261Z,8.57
2022-10-04T12:36:02.537Z,11.07
2022-10-04T12:38:50.786Z,8.93
2022-10-04T12:41:37.924Z,10.57
2022-10-04T12:44:29.300Z,8.88
2022-10-04T12:47:33.774Z,8.07
2022-10-04T12:50:18.694Z,9.07
2022-10-04T12:53:00.264Z,11.23
2022-10-04T12:56:00.668Z,9.98
2022-10-04T12:58:56.039Z,8.15
2022-10-04T13:01:37.703Z,7.75
2022-10-04T13:04:24.521Z,9.50
2022-10-04T13:07:21.270Z,11.70
2022-10-04T13:10:23.471Z,7.22
2022-10-04T13:13:25.246Z,9.75
2022-10-04T13:19:57.442Z,9.80
2022-10-04T13:22:56.443Z,7.90
2022-10-04T13:26:08.423Z,10.57
2022-10-04T13:28:50.783Z,10.98
2022-10-04T13:31:32.969Z,10.07
2022-10-04T13:34:21.178Z,8.70
2022-10-04T13:37:04.962Z,9.10
2022-10-04T13:40:07.985Z,8.73
2022-10-04T13:43:05.680Z,8.15
2022-10-04T13:45:48.604Z,6.65
2022-10-04T13:48:30.906Z,8.10
2022-10-04T13:51:20.313Z,6.67
2022-10-04T13:54:25.200Z,8.32
2022-10-04T13:57:13.270Z,8.13
2022-10-04T13:59:52.391Z,10.55
2022-10-04T14:03:03.753Z,8.90
2022-10-04T14:06:18.657Z,7.32
2022-10-04T14:09:24.796Z,10.07
2022-10-04T14:12:32.421Z,7.35
2022-10-04T14:15:31.552Z,6.80
2022-10-04T14:18:55.199Z,7.35
2022-10-04T14:22:04.744Z,6.68
2022-10-04T14:25:21.498Z,7.68
2022-10-04T14:28:20.430Z,6.95
2022-10-04T14:31:10.118Z,8.20
2022-10-04T14:34:25.440Z,6.70
2022-10-04T14:37:36.461Z,6.47
2022-10-04T14:40:34.923Z,7.90
2022-10-04T14:43:53.730Z,10.60
2022-10-04T14:46:40.427Z,10.15
2022-10-04T14:49:22.543Z,10.40
2022-10-04T14:52:18.257Z,6.93
2022-10-04T14:54:55.255Z,13.95
2022-10-04T14:57:52.558Z,9.27
2022-10-04T15:00:31.573Z,6.80
2022-10-04T15:03:28.885Z,8.65
2022-10-04T15:06:20.475Z,9.27
2022-10-04T15:09:14.936Z,7.70
2022-10-04T15:12:25.649Z,9.25
2022-10-04T15:15:17.374Z,5.78
2022-10-04T15:18:03.290Z,7.53
2022-10-04T15:20:51.321Z,5.57
2022-10-04T15:23:34.957Z,6.40
2022-10-04T15:26:39.211Z,6.55
2022-10-04T15:29:23.821Z,4.38
2022-10-04T15:32:07.662Z,6.40
2022-10-04T15:34:49.898Z,6.70
2022-10-04T15:37:34.731Z,7.10
2022-10-04T15:40:25.644Z,6.72
2022-10-04T15:43:07.396Z,6.22
2022-10-04T15:46:12.786Z,5.32
2022-10-04T15:49:00.159Z,7.88
2022-10-04T15:52:03.292Z,5.55
2022-10-04T15:55:09.858Z,6.70
2022-10-04T15:58:05.540Z,6.57
2022-10-04T16:00:49.386Z,7.93
2022-10-04T16:03:35.956Z,5.32
2022-10-04T16:06:18.096Z,6.10
2022-10-04T16:09:06.478Z,4.75
2022-10-04T16:11:55.271Z,6.38
2022-10-04T16:14:39.736Z,8.00
2022-10-04T16:17:38.481Z,6.22
2022-10-04T16:20:41.398Z,6.22
2022-10-04T16:23:27.893Z,5.27
2022-10-04T16:26:05.870Z,5.95
2022-10-04T16:28:59.755Z,6.53
2022-10-04T16:31:45.355Z,7.35
2022-10-04T16:34:48.565Z,5.85
2022-10-04T16:37:40.446Z,8.48
2022-10-04T16:40:32.010Z,5.53
2022-10-04T16:43:22.111Z,5.85
2022-10-04T16:46:18.300Z,5.35
2022-10-04T16:48:57.224Z,6.00
2022-10-04T16:52:12.346Z,6.75
2022-10-04T16:55:04.538Z,5.70
2022-10-04T16:57:39.061Z,6.05
2022-10-04T17:00:35.184Z,5.28
2022-10-04T17:03:18.711Z,5.68
2022-10-04T17:06:13.379Z,5.20
2022-10-04T17:09:03.214Z,5.82
2022-10-04T17:11:46.379Z,4.10
2022-10-04T17:17:17.720Z,4.07
2022-10-04T17:19:55.489Z,5.55
2022-10-04T17:22:38.022Z,4.75
2022-10-04T17:25:21.435Z,5.22
2022-10-04T17:27:57.438Z,4.28
2022-10-04T17:30:42.943Z,4.25
2022-10-04T17:33:35.893Z,6.20
2022-10-04T17:36:31.750Z,5.25
2022-10-04T17:39:18.736Z,3.72
2022-10-04T17:42:02.159Z,5.43
2022-10-04T17:44:52.875Z,4.90
2022-10-04T17:47:54.693Z,5.22
2022-10-04T17:50:51.917Z,5.53
2022-10-04T17:53:47.788Z,5.97
2022-10-04T17:56:31.914Z,5.15
2022-10-04T17:59:12.438Z,5.03
2022-10-04T18:01:49.562Z,5.28
2022-10-04T18:04:26.189Z,5.75
2022-10-04T18:07:16.172Z,4.80
2022-10-04T18:09:52.578Z,3.33
2022-10-04T18:12:36.431Z,4.80
2022-10-04T18:18:44.854Z,3.97
2022-10-04T18:21:26.271Z,3.88
2022-10-04T18:24:03.455Z,6.45
2022-10-04T18:26:37.348Z,5.13
2022-10-04T18:29:16.121Z,3.58
2022-10-04T18:31:49.078Z,4.65
2022-10-04T18:34:29.730Z,4.78
2022-10-04T18:37:09.618Z,4.22
2022-10-04T18:39:55.338Z,3.08
2022-10-04T18:42:37.044Z,4.13
2022-10-04T18:45:21.305Z,3.30
2022-10-04T18:47:55.699Z,3.70
2022-10-04T18:50:43.506Z,5.50
2022-10-04T18:53:50.602Z,3.55
2022-10-04T18:56:25.431Z,5.65
2022-10-04T18:59:32.588Z,5.05
2022-10-04T19:02:14.909Z,4.82
2022-10-04T19:04:56.041Z,3.43
2022-10-04T19:07:38.863Z,4.20
2022-10-04T19:10:25.965Z,4.45
2022-10-04T19:13:11.629Z,4.32
2022-10-04T19:16:25.709Z,3.05
2022-10-04T19:19:15.250Z,3.63
2022-10-04T19:21:56.540Z,4.75
2022-10-04T19:24:58.315Z,2.22
2022-10-04T19:27:36.595Z,6.18
2022-10-04T19:30:23.410Z,3.35
2022-10-04T19:33:08.092Z,4.00
2022-10-04T19:35:56.747Z,3.67
2022-10-04T19:38:51.725Z,4.38
2022-10-04T19:41:37.871Z,3.63
2022-10-04T19:44:30.012Z,2.40
2022-10-04T19:47:18.131Z,3.58
2022-10-04T19:49:57.777Z,4.05
2022-10-04T19:52:38.941Z,3.80
2022-10-04T19:55:22.135Z,6.03
2022-10-04T19:58:03.497Z,3.25
2022-10-04T20:00:37.642Z,3.80
2022-10-04T20:03:23.455Z,4.50
2022-10-04T20:06:00.546Z,4.25
2022-10-04T20:08:59.379Z,5.43
2022-10-04T20:11:50.114Z,2.58
2022-10-04T20:14:50.962Z,2.70
2022-10-04T20:17:34.995Z,4.60
2022-10-04T20:20:09.623Z,1.98
2022-10-04T20:23:03.854Z,3.13
2022-10-04T20:26:04.044Z,4.30
2022-10-04T20:28:47.506Z,3.95
2022-10-04T20:31:55.735Z,3.25
2022-10-04T20:34:36.695Z,4.90
2022-10-04T20:37:11.097Z,2.30
2022-10-04T20:40:04.705Z,3.10
2022-10-04T20:42:39.140Z,2.92
2022-10-04T20:45:27.798Z,3.85
2022-10-04T20:48:01.343Z,2.53
2022-10-04T20:50:43.202Z,3.10
2022-10-04T20:53:22.480Z,4.70
2022-10-04T20:56:11.873Z,4.13
2022-10-04T20:58:44.970Z,2.78
2022-10-04T21:04:15.434Z,3.47
2022-10-04T21:06:57.005Z,3.28
2022-10-04T21:09:32.995Z,4.03
2022-10-04T21:12:07.573Z,2.58
2022-10-04T21:14:40.470Z,4.43
2022-10-04T21:17:40.838Z,6.75
2022-10-04T21:20:15.938Z,4.97
2022-10-04T21:22:53.187Z,3.28
2022-10-04T21:25:34.763Z,3.85
2022-10-04T21:28:39.866Z,3.47
2022-10-04T21:31:12.703Z,3.22
2022-10-04T21:33:45.479Z,3.17
2022-10-04T21:36:18.433Z,3.08
2022-10-04T21:38:54.461Z,3.60
2022-10-04T21:41:28.582Z,4.43
2022-10-04T21:44:01.560Z,3.13
2022-10-04T21:49:07.836Z,2.20
2022-10-04T21:51:41.314Z,3.50
2022-10-04T21:54:14.583Z,3.47
2022-10-04T21:56:49.088Z,3.47
2022-10-04T21:59:25.032Z,3.50
2022-10-04T22:01:58.054Z,5.32
2022-10-04T22:07:03.663Z,3.30
2022-10-04T22:12:10.698Z,4.70
2022-10-04T22:14:43.853Z,2.88
2022-10-04T22:17:16.702Z,3.67
2022-10-04T22:19:49.983Z,2.78
2022-10-04T22:22:23.345Z,2.30
2022-10-04T22:24:56.233Z,3.95
2022-10-04T22:27:31.980Z,2.90
2022-10-04T22:30:08.605Z,2.58
2022-10-04T22:32:41.531Z,2.50
2022-10-04T22:35:17.545Z,2.33
2022-10-04T22:37:51.319Z,1.92
2022-10-04T22:40:27.325Z,4.13
2022-10-04T22:43:04.288Z,3.22
2022-10-04T22:45:37.485Z,1.85
2022-10-04T22:48:16.356Z,2.47
2022-10-04T22:50:52.449Z,2.17
2022-10-04T22:53:28.911Z,3.13
2022-10-04T22:56:01.803Z,2.35
2022-10-04T22:58:36.006Z,2.40
2022-10-04T23:01:20.649Z,3.50
2022-10-04T23:03:54.216Z,3.72
2022-10-04T23:06:40.443Z,4.47
2022-10-04T23:09:13.683Z,4.32
2022-10-04T23:11:49.523Z,2.67
2022-10-04T23:14:35.667Z,2.38
2022-10-04T23:17:24.735Z,2.45
2022-10-04T23:19:59.801Z,4.30
2022-10-04T23:22:32.729Z,2.65
2022-10-04T23:27:47.027Z,2.97
2022-10-04T23:30:23.409Z,3.20
2022-10-04T23:32:59.136Z,1.52
2022-10-04T23:35:39.938Z,3.05
2022-10-04T23:38:15.550Z,2.47
2022-10-04T23:40:48.279Z,2.80
2022-10-04T23:43:25.001Z,2.25
2022-10-04T23:45:59.552Z,4.75
2022-10-04T23:48:32.834Z,2.95
2022-10-04T23:51:05.777Z,2.67
2022-10-04T23:56:21.935Z,3.03
2022-10-04T23:58:59.018Z,2.35
